Latest Weather Observations for Paraburdoo

IDW60801

Issued at 8:02 am WST Tuesday 23 December 2014 (issued every 30 minutes, with the page automatically refreshed every 10 minutes)

About weather observations | Map of weather stations | Latest weather observations for WA | Other Formats
Station Details ID: 007185 Name: PARABURDOO AERO Lat: -23.17 Lon: 117.75 Height: 423.7 m
Data from the previous 72 hours. | See also: Recent months at Paraburdoo
Date/Time
WST
Temp
°C
App
Temp
°C
Dew
Point
Rel
Hum
%
Delta-T
°C
Wind Press
QNH
hPa
Press
MSL
hPa
Rain
since 9 am
mm
Dir
 
Spd
km/h
Gust
km/h
Spd
kts
Gust
kts
23/08:00am 31.0 29.2 15.4 38 9.8 ENE 19 24 10 13 1011.6 1008.0 -
23/07:30am 30.1 28.4 15.8 42 9.0 ENE 19 24 10 13 1011.4 1007.8 -
23/07:00am 29.1 27.9 16.0 45 8.3 ENE 17 20 9 11 1011.3 1007.7 -
23/06:30am 28.0 27.8 16.6 50 7.2 E 13 17 7 9 1011.3 1007.7 -
23/06:00am 26.4 25.9 16.9 56 6.0 NE 15 19 8 10 1010.7 1007.2 -
23/05:30am 25.1 25.8 17.0 60 5.1 ENE 9 13 5 7 1010.3 1006.7 -
23/05:00am 25.4 25.4 16.3 57 5.7 NE 11 13 6 7 1010.2 1006.6 -
23/04:30am 25.1 24.9 16.8 60 5.2 ENE 13 15 7 8 1010.0 1006.4 -
23/04:00am 25.7 26.1 16.3 56 5.9 ENE 9 13 5 7 1009.4 1005.8 -
23/03:30am 26.2 26.1 15.9 53 6.4 NE 11 13 6 7 1009.0 1005.4 -
23/03:00am 25.6 25.9 15.9 55 6.0 ENE 9 11 5 6 1008.7 1005.1 -
23/02:30am 26.1 26.9 16.4 55 6.1 NE 7 9 4 5 1008.5 1005.0 -
23/02:00am 26.7 27.0 16.0 52 6.7 ENE 9 11 5 6 1008.7 1005.1 -
23/01:30am 27.4 27.2 15.7 48 7.3 NE 11 13 6 7 1008.8 1005.2 -
23/01:00am 28.2 27.3 14.8 44 8.3 ENE 13 17 7 9 1008.9 1005.3 -
23/12:30am 30.5 29.1 13.3 35 10.4 NNW 13 17 7 9 1008.9 1005.3 -
23/12:00am 30.6 29.7 12.5 33 10.9 N 9 9 5 5 1009.2 1005.6 -
 
Date/Time
WST
Temp
°C
App
Temp
°C
Dew
Point
Rel
Hum
%
Delta-T
°C
Wind Press
QNH
hPa
Press
MSL
hPa
Rain
since 9 am
mm
Dir
 
Spd
km/h
Gust
km/h
Spd
kts
Gust
kts
22/11:30pm 31.9 30.5 12.2 30 11.8 NW 11 15 6 8 1009.6 1006.0 -
22/11:00pm 31.2 30.5 12.1 31 11.4 E 7 11 4 6 1009.7 1006.1 -
22/10:30pm 32.4 32.4 11.0 27 12.6 W 2 6 1 3 1009.1 1005.5 -
22/10:00pm 33.2 31.5 11.1 26 13.1 WNW 11 17 6 9 1008.8 1005.2 -
22/09:30pm 34.3 30.2 10.2 23 14.2 WNW 22 35 12 19 1008.7 1005.1 -
22/09:00pm 30.5 30.3 14.6 38 9.9 E 9 15 5 8 1007.9 1004.3 -
22/08:30pm 30.9 29.6 14.9 37 10.0 NNE 15 19 8 10 1007.1 1003.5 -
22/08:00pm 32.8 31.7 11.9 28 12.6 NW 9 11 5 6 1007.2 1003.6 -
22/07:30pm 31.9 31.7 13.6 32 11.2 SE 7 9 4 5 1007.0 1003.4 -
22/07:00pm 32.0 31.5 13.7 33 11.3 E 9 13 5 7 1006.5 1002.9 -
22/06:30pm 32.5 30.4 13.7 32 11.6 E 17 24 9 13 1006.3 1002.7 -
22/06:00pm 33.4 30.3 13.5 30 12.3 NNE 22 30 12 16 1006.5 1002.9 -
22/05:30pm 32.9 29.2 14.0 32 11.7 N 26 35 14 19 1006.9 1003.3 -
22/05:00pm 32.7 28.2 14.8 34 11.2 N 32 41 17 22 1006.8 1003.2 -
22/04:30pm 33.2 30.5 15.7 35 11.1 NE 24 30 13 16 1006.4 1002.8 -
22/04:00pm 32.7 30.0 16.5 37 10.4 ENE 26 35 14 19 1006.3 1002.7 -
22/03:30pm 33.7 32.2 13.2 29 12.6 NNW 13 19 7 10 1007.8 1004.2 -
22/03:00pm 32.6 29.6 13.8 32 11.6 NNW 22 32 12 17 1007.7 1004.1 -
22/02:42pm 33.8 30.4 13.8 30 12.4 NE 24 50 13 27 1007.8 1004.2 -
22/02:30pm 34.7 34.3 16.1 33 11.9 ENE 13 20 7 11 1007.0 1003.4 -
22/02:00pm 34.8 33.0 16.1 32 12.0 ENE 20 28 11 15 1007.0 1003.4 -
22/01:51pm 32.5 29.8 15.5 36 10.7 NE 24 30 13 16 1007.1 1003.5 -
22/01:40pm 33.5 28.3 15.5 34 11.4 NNE 37 65 20 35 1007.1 1003.5 -
22/01:33pm 29.8 23.9 16.6 45 8.4 NE 43 65 23 35 1006.7 1003.1 -
22/01:30pm 31.5 25.8 16.3 40 9.7 NE 41 57 22 31 1006.6 1003.0 -
22/01:28pm 31.5 26.7 18.5 46 8.5 NE 41 54 22 29 1006.8 1003.2 -
22/01:03pm 36.5 31.8 12.0 23 14.9 NNE 28 59 15 32 1007.0 1003.4 -
22/01:00pm 37.4 33.5 12.1 22 15.5 NNE 24 33 13 18 1007.2 1003.6 -
22/12:30pm 37.6 34.3 11.5 21 15.9 NE 20 39 11 21 1007.6 1004.0 -
22/12:22pm 38.4 36.0 11.5 20 16.4 NNW 15 39 8 21 1007.8 1004.2 -
22/12:00pm 39.1 37.6 10.4 18 17.3 SW 9 15 5 8 1008.0 1004.4 -
22/11:30am 38.8 36.4 10.2 18 17.1 NNE 13 28 7 15 1008.4 1004.9 -
22/11:00am 39.1 37.2 10.4 18 17.3 NNE 11 17 6 9 1008.8 1005.2 -
22/10:30am 37.8 35.8 10.2 19 16.5 NE 11 24 6 13 1009.1 1005.5 -
22/10:00am 36.3 34.4 11.9 23 14.9 N 13 22 7 12 1009.4 1005.8 -
22/09:30am 35.7 34.8 12.6 25 14.2 ENE 9 19 5 10 1009.6 1006.0 -
22/09:00am 34.3 33.2 13.2 28 13.0 NE 11 19 6 10 1009.7 1006.1 -
22/08:30am 33.2 32.7 13.8 31 12.0 N 9 13 5 7 1009.8 1006.2 -
22/08:00am 32.0 31.5 13.7 33 11.3 NE 9 20 5 11 1009.8 1006.2 -
22/07:30am 31.2 31.5 13.5 34 10.8 NW 4 7 2 4 1009.8 1006.2 -
22/07:00am 30.4 30.4 14.1 37 10.0 W 7 9 4 5 1009.6 1006.0 -
22/06:30am 29.6 30.9 14.2 39 9.5 CALM 0 0 0 0 1009.5 1005.9 -
22/06:00am 27.4 27.3 13.4 42 8.4 SE 6 9 3 5 1009.3 1005.7 -
22/05:30am 25.7 25.1 11.8 42 8.1 ESE 6 7 3 4 1008.9 1005.3 -
22/05:00am 26.1 26.7 11.8 41 8.3 CALM 0 0 0 0 1008.3 1004.8 -
22/04:30am 26.4 27.1 12.1 41 8.4 CALM 0 0 0 0 1007.9 1004.3 -
22/04:00am 27.0 27.8 12.6 41 8.6 CALM 0 0 0 0 1007.7 1004.1 -
22/03:30am 27.3 28.0 12.1 39 8.9 CALM 0 2 0 1 1007.6 1004.0 -
22/03:00am 29.0 29.3 14.4 41 9.0 WNW 6 7 3 4 1007.3 1003.7 -
22/02:30am 29.7 29.7 14.3 39 9.5 WNW 7 9 4 5 1007.4 1003.8 -
22/02:00am 29.6 29.4 12.9 35 10.1 NW 6 7 3 4 1007.6 1004.0 -
22/01:30am 30.3 31.0 14.4 38 9.8 NW 4 7 2 4 1007.8 1004.2 -
22/01:00am 30.6 30.8 14.2 36 10.1 WNW 6 7 3 4 1008.1 1004.5 -
22/12:30am 30.5 30.5 14.2 37 10.0 WNW 7 13 4 7 1008.3 1004.8 -
22/12:00am 31.0 32.1 14.6 37 10.2 NW 2 6 1 3 1008.7 1005.1 -
 
Date/Time
WST
Temp
°C
App
Temp
°C
Dew
Point
Rel
Hum
%
Delta-T
°C
Wind Press
QNH
hPa
Press
MSL
hPa
Rain
since 9 am
mm
Dir
 
Spd
km/h
Gust
km/h
Spd
kts
Gust
kts
21/11:30pm 31.4 31.1 14.5 35 10.5 NNW 9 11 5 6 1008.9 1005.3 -
21/11:00pm 31.6 30.3 14.7 36 10.5 N 15 20 8 11 1009.1 1005.5 -
21/10:30pm 31.8 30.3 15.3 37 10.4 NNE 17 20 9 11 1009.3 1005.7 -
21/10:00pm 32.1 29.8 14.7 35 10.9 NNE 20 28 11 15 1009.2 1005.6 -
21/09:30pm 33.6 29.8 13.6 29 12.3 NE 26 33 14 18 1008.9 1005.3 -
21/09:00pm 34.1 32.0 13.5 28 12.7 E 17 22 9 12 1008.8 1005.2 -
21/08:30pm 34.9 34.0 12.5 25 13.7 SE 9 13 5 7 1008.3 1004.8 -
21/08:00pm 35.1 32.1 12.7 26 13.8 N 20 28 11 15 1007.0 1003.4 -
21/07:30pm 35.5 32.1 12.5 25 14.1 N 22 33 12 18 1006.2 1002.5 -
21/07:00pm 36.5 31.0 12.0 23 15.0 N 32 44 17 24 1005.6 1002.0 -
21/06:30pm 38.1 34.9 11.2 20 16.3 NNW 19 30 10 16 1005.3 1001.7 -
21/06:00pm 40.2 36.4 7.6 14 19.0 SW 17 24 9 13 1004.9 1001.3 -
21/05:30pm 40.6 37.5 8.9 15 18.8 WSW 15 28 8 15 1004.7 1001.1 -
21/05:00pm 40.6 36.3 7.9 14 19.2 WSW 20 32 11 17 1004.7 1001.1 -
21/04:30pm 40.8 35.8 8.1 14 19.2 SW 24 35 13 19 1004.7 1001.1 -
21/04:00pm 41.2 36.4 7.3 13 19.7 WSW 22 33 12 18 1004.8 1001.2 -
21/03:30pm 41.1 36.9 8.3 14 19.3 SW 20 35 11 19 1005.3 1001.7 -
21/03:00pm 41.1 36.9 8.3 14 19.4 WNW 20 39 11 21 1006.0 1002.4 -
21/02:30pm 40.6 35.6 7.9 14 19.1 W 24 35 13 19 1006.6 1003.0 -
21/02:00pm 41.2 38.0 8.4 14 19.4 WNW 15 33 8 18 1007.1 1003.5 -
21/01:30pm 39.9 37.3 9.3 16 18.2 SW 13 20 7 11 1007.3 1003.7 -
21/01:00pm 40.1 36.5 8.5 15 18.6 W 17 32 9 17 1007.9 1004.3 -
21/12:30pm 38.5 35.8 9.1 17 17.3 NNW 13 28 7 15 1008.2 1004.6 -
21/12:00pm 38.1 35.0 8.8 17 17.2 WNW 15 32 8 17 1008.7 1005.1 -
21/11:30am 37.8 35.2 9.4 18 16.8 NNW 13 22 7 12 1009.0 1005.4 -
21/11:00am 37.7 35.1 9.3 18 16.7 NW 13 24 7 13 1009.5 1005.9 -
21/10:30am 36.1 34.5 8.8 19 15.8 NNW 7 15 4 8 1009.7 1006.1 -
21/10:00am 35.4 33.5 9.0 20 15.3 WSW 9 17 5 9 1009.9 1006.3 -
21/09:30am 34.6 33.1 9.1 21 14.8 WSW 7 9 4 5 1010.0 1006.4 -
21/09:00am 33.5 31.9 10.2 24 13.7 NW 9 13 5 7 1010.3 1006.7 -
21/08:30am 32.6 30.8 9.4 24 13.4 S 9 13 5 7 1010.3 1006.7 -
21/08:00am 31.8 30.7 10.5 27 12.5 SW 7 15 4 8 1010.1 1006.5 -
21/07:30am 31.3 29.8 10.6 28 12.1 WSW 9 13 5 7 1010.2 1006.6 -
21/07:00am 30.5 28.0 11.0 30 11.4 WSW 15 17 8 9 1010.2 1006.6 -
21/06:30am 30.0 27.5 11.0 31 11.1 WSW 15 17 8 9 1010.1 1006.5 -
21/06:00am 28.9 27.0 10.6 32 10.6 WNW 11 11 6 6 1009.9 1006.3 -
21/05:30am 28.5 27.3 10.2 32 10.5 WNW 7 9 4 5 1009.8 1006.2 -
21/05:00am 29.5 27.6 10.6 31 11.0 WSW 11 15 6 8 1009.4 1005.8 -
21/04:30am 29.6 27.4 10.7 31 11.0 W 13 17 7 9 1009.1 1005.5 -
21/04:00am 30.0 27.7 10.5 30 11.3 W 13 13 7 7 1008.9 1005.3 -
21/03:30am 30.2 28.2 10.2 29 11.6 WSW 11 13 6 7 1008.7 1005.1 -
21/03:00am 30.4 28.7 9.8 28 11.9 W 9 11 5 6 1008.7 1005.1 -
21/02:30am 30.7 30.8 10.1 28 11.9 CALM 0 4 0 2 1008.8 1005.2 -
21/02:00am 31.8 30.5 9.9 26 12.7 WSW 7 11 4 6 1008.8 1005.2 -
21/01:30am 32.4 30.0 9.9 25 13.1 WSW 13 17 7 9 1008.9 1005.3 -
21/01:00am 32.9 30.0 9.7 24 13.5 SW 15 24 8 13 1008.9 1005.3 -
21/12:30am 33.4 30.4 9.4 23 13.9 SW 15 20 8 11 1008.8 1005.2 -
21/12:00am 33.7 31.2 9.7 23 14.0 SW 13 17 7 9 1008.9 1005.3 -
 
Date/Time
WST
Temp
°C
App
Temp
°C
Dew
Point
Rel
Hum
%
Delta-T
°C
Wind Press
QNH
hPa
Press
MSL
hPa
Rain
since 9 am
mm
Dir
 
Spd
km/h
Gust
km/h
Spd
kts
Gust
kts
20/11:30pm 34.5 31.6 9.7 22 14.5 SW 15 20 8 11 1009.0 1005.4 -
20/11:00pm 35.2 32.3 9.6 21 15.0 SW 15 22 8 12 1008.8 1005.2 -
20/10:30pm 35.8 31.9 8.6 19 15.7 SW 19 32 10 17 1008.4 1004.9 -
20/10:00pm 36.5 33.1 9.2 19 16.0 SW 17 22 9 12 1008.1 1004.5 -
20/09:30pm 37.5 33.3 8.3 17 16.9 W 20 30 11 16 1007.8 1004.2 -
20/09:00pm 35.7 34.2 12.0 24 14.4 NE 11 15 6 8 1007.5 1003.9 -
20/08:30pm 36.2 35.4 11.8 23 14.8 ENE 7 11 4 6 1007.3 1003.7 -
20/08:00pm 37.0 36.0 11.1 21 15.6 SSE 7 15 4 8 1007.0 1003.4 -
20/07:30pm 37.4 35.2 10.7 20 16.0 NNE 13 20 7 11 1006.7 1003.1 -
20/07:00pm 39.1 36.8 10.4 18 17.3 W 13 22 7 12 1006.2 1002.5 -
20/06:30pm 40.6 36.8 8.9 15 18.8 WSW 19 26 10 14 1005.8 1002.2 -
20/06:00pm 41.1 36.9 8.3 14 19.4 WSW 20 48 11 26 1005.3 1001.7 -
20/05:30pm 41.9 38.1 8.9 14 19.6 WSW 19 32 10 17 1005.1 1001.5 -
20/05:00pm 40.8 37.1 8.1 14 19.2 WSW 17 28 9 15 1005.1 1001.5 -
20/04:30pm 41.4 36.5 8.5 14 19.4 W 24 37 13 20 1005.3 1001.7 -
20/04:00pm 42.1 38.8 8.0 13 20.1 WSW 15 24 8 13 1005.5 1001.9 -
20/03:40pm 41.9 38.9 7.8 13 20.0 WNW 13 41 7 22 1005.8 1002.2 -
20/03:30pm 41.4 38.2 8.5 14 19.4 NW 15 28 8 15 1006.0 1002.4 -
20/03:00pm 40.7 36.7 9.0 15 18.9 WNW 20 43 11 23 1006.5 1002.9 -
20/02:59pm 41.2 36.7 8.4 14 19.3 WNW 22 43 12 23 1006.6 1003.0 -
20/02:41pm 42.0 37.6 9.0 14 19.7 WSW 22 54 12 29 1006.7 1003.1 -
20/02:39pm 41.6 37.8 9.7 15 19.2 WSW 20 54 11 29 1006.3 1002.7 -
20/02:30pm 41.3 38.4 9.5 15 19.0 WSW 15 24 8 13 1007.0 1003.4 -
20/02:00pm 40.5 37.6 9.8 16 18.4 SSW 15 22 8 12 1007.8 1004.2 -
20/01:30pm 40.6 38.9 9.9 16 18.4 NW 9 20 5 11 1008.2 1004.6 -
20/01:00pm 39.7 36.3 9.2 16 18.1 W 17 26 9 14 1008.9 1005.3 -
20/12:30pm 39.4 36.5 9.8 17 17.7 WNW 15 24 8 13 1009.4 1005.8 -
20/12:00pm 38.6 36.6 10.0 18 17.1 NNW 11 20 6 11 1010.0 1006.4 -
20/11:30am 37.6 35.8 10.8 20 16.1 WSW 11 17 6 9 1010.5 1007.0 -
20/11:00am 37.0 34.9 11.1 21 15.6 NW 13 22 7 12 1010.9 1007.4 -
20/10:30am 36.1 34.0 11.0 22 15.1 NW 13 24 7 13 1011.5 1007.9 -
20/10:00am 35.1 33.5 11.5 24 14.2 W 11 20 6 11 1011.8 1008.2 -
20/09:30am 34.6 32.7 11.7 25 13.8 WSW 13 24 7 13 1012.1 1008.5 -
20/09:00am 33.3 31.6 12.3 28 12.7 SW 13 20 7 11 1012.2 1008.6 -
20/08:30am 32.4 30.4 11.6 28 12.4 W 13 20 7 11 1012.3 1008.7 -

Other Formats:

Comma delimited format used in spreadsheet applications
http://www.bom.gov.au/fwo/IDW60801/IDW60801.94316.axf

JavaScript Object Notation format (JSON) in row-major order
http://www.bom.gov.au/fwo/IDW60801/IDW60801.94316.json